This is the latest recevied weather packets stored in our database for station/object N3LF. If no packets are shown the sender has not sent any weather packets the latest 10 day(s).
| Time | Temp. | Humidity | Pressure | Rain* | Wind** | Luminosity | Snow |
|---|---|---|---|---|---|---|---|
| 1787787119 | 27.78° C | 79% | 1016.8 hPa | 0 mm | - | 16 W/m² | - |
| 1787786819 | 27.78° C | 77% | 1016.9 hPa | 0 mm | - | 33 W/m² | - |
| 1787786514 | 28.33° C | 76% | 1017 hPa | 0 mm | - | 50 W/m² | - |
| 1787786209 | 28.89° C | 73% | 1017 hPa | 0 mm | - | 63 W/m² | - |
| 1787785905 | 28.89° C | 76% | 1017 hPa | 0 mm | - | 78 W/m² | - |
| 1787785600 | 28.89° C | 74% | 1017.1 hPa | 0 mm | - | 89 W/m² | - |
| 1787785295 | 28.89° C | 76% | 1017.1 hPa | 0 mm | - | 98 W/m² | - |
| 1787784994 | 28.89° C | 78% | 1017.1 hPa | 0 mm | - | 109 W/m² | - |
| 1787784688 | 29.44° C | 75% | 1017.1 hPa | 0 mm | - | 121 W/m² | - |
| 1787784388 | 30° C | 73% | 1017 hPa | 0 mm | - | 133 W/m² | - |
| 1787784087 | 30° C | 75% | 1016.9 hPa | 0 mm | - | 145 W/m² | - |
| 1787783784 | 29.44° C | 75% | 1016.8 hPa | 0 mm | - | 158 W/m² | - |
| 1787783483 | 29.44° C | 71% | 1016.7 hPa | 0 mm | - | 171 W/m² | - |
| 1787783179 | 29.44° C | 74% | 1016.8 hPa | 0 mm | - | 184 W/m² | - |
| 1787782874 | 28.89° C | 75% | 1016.7 hPa | 0 mm | - | 198 W/m² | - |
| 1787782574 | 28.89° C | 75% | 1016.7 hPa | 0 mm | - | 210 W/m² | - |
| 1787782269 | 28.89° C | 71% | 1016.4 hPa | 0 mm | - | 225 W/m² | - |
| 1787781965 | 28.33° C | 75% | 1016.6 hPa | 0 mm | - | 240 W/m² | - |
| 1787781660 | 28.89° C | 74% | 1016.5 hPa | 0 mm | - | 254 W/m² | - |
| 1787781357 | 28.33° C | 75% | 1016.5 hPa | 0 mm | - | 271 W/m² | - |
| 1787781056 | 28.33° C | 79% | 1016.4 hPa | 0 mm | - | 267 W/m² | - |
| 1787780756 | 27.78° C | 81% | 1016.2 hPa | 0 mm | - | 302 W/m² | - |
| 1787780455 | 27.22° C | 82% | 1016.5 hPa | 0 mm | - | 316 W/m² | - |
| 1787780152 | 27.78° C | 80% | 1016.6 hPa | 0 mm | - | 334 W/m² | - |
| 1787779847 | 27.78° C | 81% | 1016.7 hPa | 0 mm | - | 349 W/m² | - |
* Rain latest hour (hover to see other rain measurements)
** Current wind speed in m/s (hover to see current wind gust speed)